sensor_id;sensor_type;location;lat;lon;timestamp;pressure;altitude;pressure_sealevel;temperature;humidity
13407;BME280;6774;48.208;10.766;2023-04-10T00:01:47;96209.34;;;3.19;79.66
13407;BME280;6774;48.208;10.766;2023-04-10T00:04:16;96214.56;;;3.19;79.05
13407;BME280;6774;48.208;10.766;2023-04-10T00:06:44;96210.56;;;3.14;79.53
13407;BME280;6774;48.208;10.766;2023-04-10T00:09:14;96207.25;;;3.12;79.17
13407;BME280;6774;48.208;10.766;2023-04-10T00:11:42;96201.59;;;3.07;79.12
13407;BME280;6774;48.208;10.766;2023-04-10T00:14:09;96198.31;;;2.94;78.59
13407;BME280;6774;48.208;10.766;2023-04-10T00:16:37;96193.97;;;2.83;79.09
13407;BME280;6774;48.208;10.766;2023-04-10T00:19:05;96196.25;;;2.77;78.78
13407;BME280;6774;48.208;10.766;2023-04-10T00:21:34;96192.50;;;2.59;78.63
13407;BME280;6774;48.208;10.766;2023-04-10T00:24:02;96198.06;;;2.54;79.08
13407;BME280;6774;48.208;10.766;2023-04-10T00:26:30;96187.06;;;2.50;78.99
13407;BME280;6774;48.208;10.766;2023-04-10T00:28:58;96190.38;;;2.52;79.66
13407;BME280;6774;48.208;10.766;2023-04-10T00:31:26;96180.91;;;2.51;79.74
13407;BME280;6774;48.208;10.766;2023-04-10T00:33:53;96179.13;;;2.52;79.62
13407;BME280;6774;48.208;10.766;2023-04-10T00:36:21;96173.91;;;2.52;80.08
13407;BME280;6774;48.208;10.766;2023-04-10T00:38:50;96164.06;;;2.55;80.04
13407;BME280;6774;48.208;10.766;2023-04-10T00:41:18;96171.19;;;2.53;79.70
13407;BME280;6774;48.208;10.766;2023-04-10T00:43:45;96167.88;;;2.51;80.46
13407;BME280;6774;48.208;10.766;2023-04-10T00:46:13;96164.31;;;2.52;79.78
13407;BME280;6774;48.208;10.766;2023-04-10T00:48:41;96156.63;;;2.51;80.02
13407;BME280;6774;48.208;10.766;2023-04-10T00:51:10;96158.16;;;2.53;80.47
13407;BME280;6774;48.208;10.766;2023-04-10T00:53:38;96152.00;;;2.54;80.21
13407;BME280;6774;48.208;10.766;2023-04-10T00:56:08;96156.03;;;2.59;80.20
13407;BME280;6774;48.208;10.766;2023-04-10T00:58:36;96154.47;;;2.56;80.34
13407;BME280;6774;48.208;10.766;2023-04-10T01:01:05;96152.72;;;2.56;80.13
13407;BME280;6774;48.208;10.766;2023-04-10T01:03:34;96157.19;;;2.54;79.90
13407;BME280;6774;48.208;10.766;2023-04-10T01:06:07;96153.91;;;2.52;80.67
13407;BME280;6774;48.208;10.766;2023-04-10T01:08:43;96149.63;;;2.51;80.22
13407;BME280;6774;48.208;10.766;2023-04-10T01:11:22;96144.44;;;2.51;80.75
13407;BME280;6774;48.208;10.766;2023-04-10T01:13:54;96141.94;;;2.50;80.29
13407;BME280;6774;48.208;10.766;2023-04-10T01:16:28;96151.06;;;2.44;80.62
13407;BME280;6774;48.208;10.766;2023-04-10T01:19:03;96146.13;;;2.19;80.34
13407;BME280;6774;48.208;10.766;2023-04-10T01:21:35;96150.31;;;2.21;80.56
13407;BME280;6774;48.208;10.766;2023-04-10T01:24:20;96146.13;;;2.19;80.04
13407;BME280;6774;48.208;10.766;2023-04-10T01:27:09;96153.50;;;2.14;79.86
13407;BME280;6774;48.208;10.766;2023-04-10T01:29:42;96155.63;;;2.09;80.49
13407;BME280;6774;48.208;10.766;2023-04-10T01:32:14;96154.44;;;1.90;80.30
13407;BME280;6774;48.208;10.766;2023-04-10T01:34:45;96152.66;;;1.91;79.96
13407;BME280;6774;48.208;10.766;2023-04-10T01:37:16;96152.09;;;1.87;80.88
13407;BME280;6774;48.208;10.766;2023-04-10T01:39:49;96156.59;;;1.85;80.77
13407;BME280;6774;48.208;10.766;2023-04-10T01:42:18;96154.13;;;1.84;80.45
13407;BME280;6774;48.208;10.766;2023-04-10T01:44:49;96148.41;;;1.79;81.30
13407;BME280;6774;48.208;10.766;2023-04-10T01:47:19;96137.88;;;1.80;81.54
13407;BME280;6774;48.208;10.766;2023-04-10T01:49:49;96132.34;;;1.85;81.17
13407;BME280;6774;48.208;10.766;2023-04-10T01:52:18;96128.66;;;1.87;81.83
13407;BME280;6774;48.208;10.766;2023-04-10T01:54:52;96137.66;;;1.94;80.61
13407;BME280;6774;48.208;10.766;2023-04-10T01:57:30;96133.16;;;1.96;81.22
13407;BME280;6774;48.208;10.766;2023-04-10T01:59:59;96132.22;;;1.97;81.16
13407;BME280;6774;48.208;10.766;2023-04-10T02:02:29;96137.66;;;1.94;81.08
13407;BME280;6774;48.208;10.766;2023-04-10T02:04:58;96130.81;;;1.93;80.73
13407;BME280;6774;48.208;10.766;2023-04-10T02:07:29;96130.19;;;1.90;81.53
13407;BME280;6774;48.208;10.766;2023-04-10T02:10:08;96132.56;;;1.82;81.17
13407;BME280;6774;48.208;10.766;2023-04-10T02:12:40;96131.72;;;1.81;80.75
13407;BME280;6774;48.208;10.766;2023-04-10T02:15:15;96136.94;;;1.59;79.99
13407;BME280;6774;48.208;10.766;2023-04-10T02:17:46;96133.28;;;1.50;80.51
13407;BME280;6774;48.208;10.766;2023-04-10T02:20:15;96133.84;;;1.54;80.46
13407;BME280;6774;48.208;10.766;2023-04-10T02:22:45;96129.25;;;1.57;81.13
13407;BME280;6774;48.208;10.766;2023-04-10T02:25:13;96131.50;;;1.62;81.34
13407;BME280;6774;48.208;10.766;2023-04-10T02:27:41;96124.19;;;1.67;81.79
13407;BME280;6774;48.208;10.766;2023-04-10T02:30:09;96118.28;;;1.76;82.14
13407;BME280;6774;48.208;10.766;2023-04-10T02:32:39;96111.41;;;1.75;82.13
13407;BME280;6774;48.208;10.766;2023-04-10T02:35:07;96116.38;;;1.78;82.83
13407;BME280;6774;48.208;10.766;2023-04-10T02:37:36;96116.94;;;1.82;82.10
13407;BME280;6774;48.208;10.766;2023-04-10T02:40:05;96124.88;;;1.80;81.94
13407;BME280;6774;48.208;10.766;2023-04-10T02:42:44;96125.13;;;1.77;81.52
13407;BME280;6774;48.208;10.766;2023-04-10T02:45:11;96129.38;;;1.67;81.30
13407;BME280;6774;48.208;10.766;2023-04-10T02:47:43;96132.31;;;1.62;82.05
13407;BME280;6774;48.208;10.766;2023-04-10T02:50:11;96137.53;;;1.62;81.24
13407;BME280;6774;48.208;10.766;2023-04-10T02:52:42;96135.03;;;1.61;82.11
13407;BME280;6774;48.208;10.766;2023-04-10T02:55:09;96135.03;;;1.61;81.75
13407;BME280;6774;48.208;10.766;2023-04-10T02:57:39;96134.22;;;1.60;81.77
13407;BME280;6774;48.208;10.766;2023-04-10T03:00:09;96132.44;;;1.61;81.71
13407;BME280;6774;48.208;10.766;2023-04-10T03:02:56;96130.66;;;1.61;81.97
13407;BME280;6774;48.208;10.766;2023-04-10T03:05:30;96139.41;;;1.60;81.89
13407;BME280;6774;48.208;10.766;2023-04-10T03:07:57;96138.09;;;1.55;81.80
13407;BME280;6774;48.208;10.766;2023-04-10T03:10:25;96136.44;;;1.54;82.26
13407;BME280;6774;48.208;10.766;2023-04-10T03:12:52;96134.09;;;1.51;81.98
13407;BME280;6774;48.208;10.766;2023-04-10T03:15:20;96140.13;;;1.51;82.09
13407;BME280;6774;48.208;10.766;2023-04-10T03:17:48;96124.06;;;1.57;82.14
13407;BME280;6774;48.208;10.766;2023-04-10T03:20:17;96122.03;;;1.61;82.02
13407;BME280;6774;48.208;10.766;2023-04-10T03:22:45;96130.53;;;1.63;81.74
13407;BME280;6774;48.208;10.766;2023-04-10T03:25:13;96134.81;;;1.64;81.27
13407;BME280;6774;48.208;10.766;2023-04-10T03:27:41;96121.78;;;1.53;81.80
13407;BME280;6774;48.208;10.766;2023-04-10T03:30:09;96135.28;;;1.47;81.11
13407;BME280;6774;48.208;10.766;2023-04-10T03:32:40;96133.38;;;1.37;80.87
13407;BME280;6774;48.208;10.766;2023-04-10T03:35:09;96120.09;;;1.18;79.82
13407;BME280;6774;48.208;10.766;2023-04-10T03:37:39;96120.78;;;1.09;79.16
13407;BME280;6774;48.208;10.766;2023-04-10T03:40:09;96116.75;;;1.05;79.63
13407;BME280;6774;48.208;10.766;2023-04-10T03:42:37;96114.28;;;1.03;79.49
13407;BME280;6774;48.208;10.766;2023-04-10T03:45:05;96118.66;;;1.03;80.48
13407;BME280;6774;48.208;10.766;2023-04-10T03:47:33;96122.91;;;1.04;81.07
13407;BME280;6774;48.208;10.766;2023-04-10T03:50:05;96117.00;;;1.02;80.38
13407;BME280;6774;48.208;10.766;2023-04-10T03:52:41;96130.09;;;1.00;81.61
13407;BME280;6774;48.208;10.766;2023-04-10T03:55:13;96131.16;;;0.98;81.46
13407;BME280;6774;48.208;10.766;2023-04-10T03:57:44;96130.94;;;1.01;81.56
13407;BME280;6774;48.208;10.766;2023-04-10T04:00:13;96129.25;;;1.00;82.12
13407;BME280;6774;48.208;10.766;2023-04-10T04:02:47;96137.03;;;0.89;81.81
13407;BME280;6774;48.208;10.766;2023-04-10T04:05:39;96137.41;;;0.71;81.09
13407;BME280;6774;48.208;10.766;2023-04-10T04:08:23;96130.25;;;0.75;81.00
13407;BME280;6774;48.208;10.766;2023-04-10T04:11:09;96126.81;;;0.74;81.44
13407;BME280;6774;48.208;10.766;2023-04-10T04:13:56;96130.84;;;0.78;81.85
13407;BME280;6774;48.208;10.766;2023-04-10T04:16:47;96122.09;;;0.79;81.34
13407;BME280;6774;48.208;10.766;2023-04-10T04:19:33;96125.22;;;0.84;82.25
13407;BME280;6774;48.208;10.766;2023-04-10T04:22:06;96128.75;;;0.83;81.72
13407;BME280;6774;48.208;10.766;2023-04-10T04:24:55;96134.66;;;0.85;81.98
13407;BME280;6774;48.208;10.766;2023-04-10T04:27:49;96135.38;;;0.88;82.05
13407;BME280;6774;48.208;10.766;2023-04-10T04:30:29;96139.63;;;0.89;82.28
13407;BME280;6774;48.208;10.766;2023-04-10T04:33:23;96139.50;;;0.90;81.90
13407;BME280;6774;48.208;10.766;2023-04-10T04:36:11;96144.94;;;0.87;82.57
13407;BME280;6774;48.208;10.766;2023-04-10T04:39:02;96143.16;;;0.88;82.51
13407;BME280;6774;48.208;10.766;2023-04-10T04:42:04;96147.41;;;0.89;82.61
13407;BME280;6774;48.208;10.766;2023-04-10T04:44:35;96144.09;;;0.87;82.96
13407;BME280;6774;48.208;10.766;2023-04-10T04:47:22;96145.53;;;0.91;82.71
13407;BME280;6774;48.208;10.766;2023-04-10T04:50:05;96140.94;;;0.94;83.27
13407;BME280;6774;48.208;10.766;2023-04-10T04:52:53;96139.66;;;1.00;83.15
13407;BME280;6774;48.208;10.766;2023-04-10T04:55:32;96144.81;;;0.89;82.64
13407;BME280;6774;48.208;10.766;2023-04-10T04:58:30;96149.69;;;0.93;82.44
13407;BME280;6774;48.208;10.766;2023-04-10T05:01:11;96150.03;;;1.00;82.93
13407;BME280;6774;48.208;10.766;2023-04-10T05:03:51;96147.94;;;1.05;83.21
13407;BME280;6774;48.208;10.766;2023-04-10T05:06:51;96149.34;;;1.09;82.92
13407;BME280;6774;48.208;10.766;2023-04-10T05:09:38;96154.22;;;1.13;83.56
13407;BME280;6774;48.208;10.766;2023-04-10T05:12:37;96168.44;;;1.21;82.57
13407;BME280;6774;48.208;10.766;2023-04-10T05:15:22;96170.09;;;1.22;83.16
13407;BME280;6774;48.208;10.766;2023-04-10T05:18:06;96163.84;;;1.35;83.47
13407;BME280;6774;48.208;10.766;2023-04-10T05:20:52;96171.56;;;1.48;82.79
13407;BME280;6774;48.208;10.766;2023-04-10T05:23:40;96172.16;;;1.63;82.04
13407;BME280;6774;48.208;10.766;2023-04-10T05:26:27;96173.03;;;1.75;82.54
13407;BME280;6774;48.208;10.766;2023-04-10T05:29:09;96177.75;;;1.81;83.01
13407;BME280;6774;48.208;10.766;2023-04-10T05:31:57;96177.16;;;1.88;82.94
13407;BME280;6774;48.208;10.766;2023-04-10T05:34:40;96176.94;;;2.03;82.47
13407;BME280;6774;48.208;10.766;2023-04-10T05:37:08;96177.63;;;2.16;83.11
13407;BME280;6774;48.208;10.766;2023-04-10T05:39:48;96171.44;;;2.28;83.01
13407;BME280;6774;48.208;10.766;2023-04-10T05:42:34;96177.38;;;2.41;81.72
13407;BME280;6774;48.208;10.766;2023-04-10T05:45:23;96171.31;;;2.52;82.67
13407;BME280;6774;48.208;10.766;2023-04-10T05:48:15;96174.34;;;2.68;82.01
13407;BME280;6774;48.208;10.766;2023-04-10T05:51:05;96170.88;;;2.79;81.97
13407;BME280;6774;48.208;10.766;2023-04-10T05:54:26;96165.84;;;2.98;81.71
13407;BME280;6774;48.208;10.766;2023-04-10T05:57:12;96173.25;;;3.14;81.23
13407;BME280;6774;48.208;10.766;2023-04-10T06:00:00;96168.28;;;3.32;80.42
13407;BME280;6774;48.208;10.766;2023-04-10T06:03:00;96160.03;;;3.48;80.29
13407;BME280;6774;48.208;10.766;2023-04-10T06:05:31;96154.59;;;3.60;79.84
13407;BME280;6774;48.208;10.766;2023-04-10T06:08:03;96155.94;;;3.76;79.86
13407;BME280;6774;48.208;10.766;2023-04-10T06:10:31;96155.56;;;3.90;79.64
13407;BME280;6774;48.208;10.766;2023-04-10T06:12:58;96154.50;;;4.02;79.98
13407;BME280;6774;48.208;10.766;2023-04-10T06:15:27;96159.38;;;4.16;79.87
13407;BME280;6774;48.208;10.766;2023-04-10T06:17:56;96167.81;;;4.29;79.62
13407;BME280;6774;48.208;10.766;2023-04-10T06:20:23;96172.94;;;4.41;78.88
13407;BME280;6774;48.208;10.766;2023-04-10T06:22:53;96163.75;;;4.56;79.26
13407;BME280;6774;48.208;10.766;2023-04-10T06:25:21;96160.91;;;4.69;78.76
13407;BME280;6774;48.208;10.766;2023-04-10T06:27:49;96164.22;;;4.80;78.30
13407;BME280;6774;48.208;10.766;2023-04-10T06:30:17;96153.47;;;4.83;77.86
13407;BME280;6774;48.208;10.766;2023-04-10T06:32:45;96152.41;;;4.86;77.51
13407;BME280;6774;48.208;10.766;2023-04-10T06:35:13;96154.06;;;5.06;78.04
13407;BME280;6774;48.208;10.766;2023-04-10T06:37:41;96143.03;;;5.22;77.58
13407;BME280;6774;48.208;10.766;2023-04-10T06:40:13;96138.88;;;5.39;77.29
13407;BME280;6774;48.208;10.766;2023-04-10T06:42:40;96142.19;;;5.51;76.95
13407;BME280;6774;48.208;10.766;2023-04-10T06:45:14;96136.91;;;5.60;76.59
13407;BME280;6774;48.208;10.766;2023-04-10T06:47:41;96142.50;;;5.75;77.00
13407;BME280;6774;48.208;10.766;2023-04-10T06:50:09;96132.16;;;5.93;76.98
13407;BME280;6774;48.208;10.766;2023-04-10T06:52:37;96129.75;;;6.09;76.98
13407;BME280;6774;48.208;10.766;2023-04-10T06:55:05;96133.94;;;6.30;77.31
13407;BME280;6774;48.208;10.766;2023-04-10T06:57:34;96133.53;;;6.52;76.96
13407;BME280;6774;48.208;10.766;2023-04-10T07:00:02;96126.53;;;6.70;76.49
13407;BME280;6774;48.208;10.766;2023-04-10T07:02:30;96132.63;;;6.89;75.74
13407;BME280;6774;48.208;10.766;2023-04-10T07:04:58;96139.88;;;7.12;75.17
13407;BME280;6774;48.208;10.766;2023-04-10T07:07:25;96144.97;;;7.32;74.31
13407;BME280;6774;48.208;10.766;2023-04-10T07:09:54;96136.53;;;7.46;74.48
13407;BME280;6774;48.208;10.766;2023-04-10T07:12:23;96133.44;;;7.68;73.62
13407;BME280;6774;48.208;10.766;2023-04-10T07:14:52;96131.41;;;7.88;72.65
13407;BME280;6774;48.208;10.766;2023-04-10T07:17:20;96130.00;;;8.02;70.92
13407;BME280;6774;48.208;10.766;2023-04-10T07:19:47;96132.44;;;8.30;70.98
13407;BME280;6774;48.208;10.766;2023-04-10T07:22:15;96134.84;;;8.49;69.67
13407;BME280;6774;48.208;10.766;2023-04-10T07:24:43;96134.72;;;8.67;68.88
13407;BME280;6774;48.208;10.766;2023-04-10T07:27:11;96130.31;;;8.75;66.81
13407;BME280;6774;48.208;10.766;2023-04-10T07:29:38;96127.09;;;8.98;67.23
13407;BME280;6774;48.208;10.766;2023-04-10T07:32:08;96119.50;;;9.11;67.13
13407;BME280;6774;48.208;10.766;2023-04-10T07:34:36;96117.38;;;9.31;66.61
13407;BME280;6774;48.208;10.766;2023-04-10T07:37:03;96117.38;;;9.47;66.25
13407;BME280;6774;48.208;10.766;2023-04-10T07:39:32;96114.72;;;9.72;65.07
13407;BME280;6774;48.208;10.766;2023-04-10T07:42:00;96116.84;;;9.84;63.76
13407;BME280;6774;48.208;10.766;2023-04-10T07:44:27;96112.19;;;9.94;62.34
13407;BME280;6774;48.208;10.766;2023-04-10T07:46:55;96107.72;;;10.11;62.13
13407;BME280;6774;48.208;10.766;2023-04-10T07:49:25;96108.50;;;10.20;61.59
13407;BME280;6774;48.208;10.766;2023-04-10T07:51:53;96104.69;;;10.31;62.13
13407;BME280;6774;48.208;10.766;2023-04-10T07:54:21;96103.34;;;10.43;60.94
13407;BME280;6774;48.208;10.766;2023-04-10T07:56:50;96101.56;;;10.35;59.24
13407;BME280;6774;48.208;10.766;2023-04-10T07:59:18;96113.19;;;10.49;59.16
13407;BME280;6774;48.208;10.766;2023-04-10T08:01:46;96099.06;;;10.73;60.27
13407;BME280;6774;48.208;10.766;2023-04-10T08:04:14;96102.00;;;10.78;58.75
13407;BME280;6774;48.208;10.766;2023-04-10T08:06:43;96097.44;;;10.95;58.03
13407;BME280;6774;48.208;10.766;2023-04-10T08:09:11;96096.13;;;11.14;57.65
13407;BME280;6774;48.208;10.766;2023-04-10T08:11:39;96094.97;;;11.39;57.82
13407;BME280;6774;48.208;10.766;2023-04-10T08:14:06;96091.31;;;11.40;57.38
13407;BME280;6774;48.208;10.766;2023-04-10T08:16:34;96096.84;;;11.68;57.03
13407;BME280;6774;48.208;10.766;2023-04-10T08:19:04;96099.81;;;11.88;57.68
13407;BME280;6774;48.208;10.766;2023-04-10T08:21:32;96105.31;;;12.01;55.78
13407;BME280;6774;48.208;10.766;2023-04-10T08:24:02;96098.84;;;12.18;56.47
13407;BME280;6774;48.208;10.766;2023-04-10T08:26:30;96109.97;;;12.29;56.54
13407;BME280;6774;48.208;10.766;2023-04-10T08:28:58;96107.66;;;12.55;55.75
13407;BME280;6774;48.208;10.766;2023-04-10T08:31:28;96108.72;;;12.75;53.37
13407;BME280;6774;48.208;10.766;2023-04-10T08:33:56;96108.63;;;13.05;55.19
13407;BME280;6774;48.208;10.766;2023-04-10T08:36:24;96110.88;;;13.23;54.72
13407;BME280;6774;48.208;10.766;2023-04-10T08:38:53;96104.59;;;13.09;53.22
13407;BME280;6774;48.208;10.766;2023-04-10T08:41:22;96115.91;;;13.18;52.21
13407;BME280;6774;48.208;10.766;2023-04-10T08:43:49;96112.97;;;13.27;53.42
13407;BME280;6774;48.208;10.766;2023-04-10T08:46:17;96114.72;;;13.42;53.21
13407;BME280;6774;48.208;10.766;2023-04-10T08:48:51;96112.09;;;13.70;52.90
13407;BME280;6774;48.208;10.766;2023-04-10T08:51:21;96110.31;;;14.05;52.58
13407;BME280;6774;48.208;10.766;2023-04-10T08:53:57;96111.44;;;14.51;51.42
13407;BME280;6774;48.208;10.766;2023-04-10T08:56:26;96099.97;;;14.92;52.16
13407;BME280;6774;48.208;10.766;2023-04-10T08:58:54;96105.88;;;14.94;50.68
13407;BME280;6774;48.208;10.766;2023-04-10T09:01:22;96110.41;;;15.07;49.92
13407;BME280;6774;48.208;10.766;2023-04-10T09:03:50;96100.41;;;15.16;49.62
13407;BME280;6774;48.208;10.766;2023-04-10T09:06:18;96099.84;;;15.40;48.25
13407;BME280;6774;48.208;10.766;2023-04-10T09:08:45;96093.72;;;15.59;48.78
13407;BME280;6774;48.208;10.766;2023-04-10T09:11:13;96092.75;;;15.74;48.19
13407;BME280;6774;48.208;10.766;2023-04-10T09:13:42;96090.88;;;15.94;47.97
13407;BME280;6774;48.208;10.766;2023-04-10T09:16:12;96091.88;;;16.06;47.68
13407;BME280;6774;48.208;10.766;2023-04-10T09:18:45;96086.53;;;16.19;45.76
13407;BME280;6774;48.208;10.766;2023-04-10T09:21:14;96085.88;;;16.31;46.67
13407;BME280;6774;48.208;10.766;2023-04-10T09:23:43;96087.94;;;16.29;45.40
13407;BME280;6774;48.208;10.766;2023-04-10T09:26:27;96078.13;;;16.23;45.80
13407;BME280;6774;48.208;10.766;2023-04-10T09:29:01;96073.31;;;16.58;45.83
13407;BME280;6774;48.208;10.766;2023-04-10T09:31:32;96070.19;;;16.74;45.60
13407;BME280;6774;48.208;10.766;2023-04-10T09:34:07;96073.47;;;16.76;43.80
13407;BME280;6774;48.208;10.766;2023-04-10T09:36:35;96073.00;;;16.86;44.08
13407;BME280;6774;48.208;10.766;2023-04-10T09:39:04;96075.78;;;17.04;44.21
13407;BME280;6774;48.208;10.766;2023-04-10T09:41:32;96064.81;;;16.81;43.27
13407;BME280;6774;48.208;10.766;2023-04-10T09:44:09;96064.75;;;16.94;44.44
13407;BME280;6774;48.208;10.766;2023-04-10T09:46:37;96060.84;;;17.28;45.61
13407;BME280;6774;48.208;10.766;2023-04-10T09:49:05;96053.56;;;17.42;45.17
13407;BME280;6774;48.208;10.766;2023-04-10T09:51:34;96052.00;;;17.59;43.00
13407;BME280;6774;48.208;10.766;2023-04-10T09:54:02;96048.34;;;17.53;42.50
13407;BME280;6774;48.208;10.766;2023-04-10T09:56:32;96039.00;;;17.94;42.50
13407;BME280;6774;48.208;10.766;2023-04-10T09:59:03;96030.53;;;17.97;43.07
13407;BME280;6774;48.208;10.766;2023-04-10T10:01:36;96025.56;;;18.19;41.39
13407;BME280;6774;48.208;10.766;2023-04-10T10:04:06;96025.06;;;18.29;42.72
13407;BME280;6774;48.208;10.766;2023-04-10T10:06:37;96023.34;;;18.16;40.37
13407;BME280;6774;48.208;10.766;2023-04-10T10:09:04;96017.47;;;18.44;40.77
13407;BME280;6774;48.208;10.766;2023-04-10T10:11:33;96008.53;;;18.87;41.12
13407;BME280;6774;48.208;10.766;2023-04-10T10:14:02;96015.75;;;18.86;39.76
13407;BME280;6774;48.208;10.766;2023-04-10T10:16:38;96008.16;;;19.13;40.30
13407;BME280;6774;48.208;10.766;2023-04-10T10:19:12;96001.94;;;18.71;39.85
13407;BME280;6774;48.208;10.766;2023-04-10T10:21:43;95997.69;;;19.12;38.96
13407;BME280;6774;48.208;10.766;2023-04-10T10:24:12;95983.84;;;19.26;39.21
13407;BME280;6774;48.208;10.766;2023-04-10T10:26:41;95992.84;;;19.32;37.59
13407;BME280;6774;48.208;10.766;2023-04-10T10:29:09;95987.53;;;19.79;38.61
13407;BME280;6774;48.208;10.766;2023-04-10T10:31:40;95980.19;;;19.86;38.05
13407;BME280;6774;48.208;10.766;2023-04-10T10:34:09;95971.69;;;19.66;37.63
13407;BME280;6774;48.208;10.766;2023-04-10T10:36:38;95974.38;;;19.89;38.00
13407;BME280;6774;48.208;10.766;2023-04-10T10:39:21;95964.00;;;20.04;37.12
13407;BME280;6774;48.208;10.766;2023-04-10T10:41:58;95965.44;;;20.35;37.65
13407;BME280;6774;48.208;10.766;2023-04-10T10:44:33;95960.69;;;20.26;37.62
13407;BME280;6774;48.208;10.766;2023-04-10T10:47:12;95963.72;;;20.17;36.77
13407;BME280;6774;48.208;10.766;2023-04-10T10:49:51;95950.81;;;20.14;38.50
13407;BME280;6774;48.208;10.766;2023-04-10T10:52:42;95949.41;;;20.00;37.48
13407;BME280;6774;48.208;10.766;2023-04-10T10:55:32;95942.28;;;20.17;37.56
13407;BME280;6774;48.208;10.766;2023-04-10T10:58:05;95938.41;;;20.25;37.22
13407;BME280;6774;48.208;10.766;2023-04-10T11:01:04;95937.88;;;20.11;38.13
13407;BME280;6774;48.208;10.766;2023-04-10T11:03:37;95935.63;;;20.20;38.14
13407;BME280;6774;48.208;10.766;2023-04-10T11:06:06;95933.38;;;20.29;36.21
13407;BME280;6774;48.208;10.766;2023-04-10T11:08:36;95921.19;;;20.61;36.15
13407;BME280;6774;48.208;10.766;2023-04-10T11:11:09;95923.56;;;20.74;35.08
13407;BME280;6774;48.208;10.766;2023-04-10T11:13:39;95923.00;;;20.72;34.86
13407;BME280;6774;48.208;10.766;2023-04-10T11:16:08;95917.69;;;21.23;34.83
13407;BME280;6774;48.208;10.766;2023-04-10T11:19:03;95917.81;;;20.83;35.47
13407;BME280;6774;48.208;10.766;2023-04-10T11:21:59;95908.84;;;20.60;35.64
13407;BME280;6774;48.208;10.766;2023-04-10T11:24:28;95918.00;;;20.64;36.37
13407;BME280;6774;48.208;10.766;2023-04-10T11:26:56;95906.63;;;20.86;37.50
13407;BME280;6774;48.208;10.766;2023-04-10T11:29:42;95910.09;;;20.86;33.64
13407;BME280;6774;48.208;10.766;2023-04-10T11:32:09;95904.00;;;20.91;33.47
13407;BME280;6774;48.208;10.766;2023-04-10T11:34:43;95903.63;;;21.33;34.19
13407;BME280;6774;48.208;10.766;2023-04-10T11:37:21;95896.84;;;21.47;35.70
13407;BME280;6774;48.208;10.766;2023-04-10T11:40:02;95896.03;;;21.46;34.22
13407;BME280;6774;48.208;10.766;2023-04-10T11:42:30;95893.59;;;21.11;32.95
13407;BME280;6774;48.208;10.766;2023-04-10T11:44:57;95886.75;;;21.54;35.10
13407;BME280;6774;48.208;10.766;2023-04-10T11:47:26;95886.56;;;21.77;35.77
13407;BME280;6774;48.208;10.766;2023-04-10T11:49:55;95892.88;;;21.49;34.77
13407;BME280;6774;48.208;10.766;2023-04-10T11:52:24;95890.84;;;21.06;35.83
13407;BME280;6774;48.208;10.766;2023-04-10T11:54:52;95876.00;;;20.53;36.41
13407;BME280;6774;48.208;10.766;2023-04-10T11:57:19;95872.25;;;20.54;33.31
13407;BME280;6774;48.208;10.766;2023-04-10T11:59:49;95881.63;;;20.40;33.60
13407;BME280;6774;48.208;10.766;2023-04-10T12:02:17;95869.50;;;20.49;34.03
13407;BME280;6774;48.208;10.766;2023-04-10T12:04:45;95869.97;;;20.46;34.49
13407;BME280;6774;48.208;10.766;2023-04-10T12:07:14;95861.25;;;20.67;35.72
13407;BME280;6774;48.208;10.766;2023-04-10T12:09:42;95861.63;;;20.59;35.19
13407;BME280;6774;48.208;10.766;2023-04-10T12:12:10;95870.84;;;20.23;35.54
13407;BME280;6774;48.208;10.766;2023-04-10T12:14:40;95862.47;;;20.77;35.60
13407;BME280;6774;48.208;10.766;2023-04-10T12:17:10;95865.88;;;21.22;34.36
13407;BME280;6774;48.208;10.766;2023-04-10T12:19:38;95865.63;;;21.24;35.41
13407;BME280;6774;48.208;10.766;2023-04-10T12:22:07;95866.66;;;20.72;34.71
13407;BME280;6774;48.208;10.766;2023-04-10T12:24:43;95857.31;;;20.58;35.04
13407;BME280;6774;48.208;10.766;2023-04-10T12:27:15;95855.59;;;20.24;35.10
13407;BME280;6774;48.208;10.766;2023-04-10T12:29:44;95843.25;;;20.51;35.39
13407;BME280;6774;48.208;10.766;2023-04-10T12:32:12;95852.34;;;20.22;35.08
13407;BME280;6774;48.208;10.766;2023-04-10T12:34:41;95851.75;;;20.48;34.74
13407;BME280;6774;48.208;10.766;2023-04-10T12:37:08;95849.88;;;20.94;33.78
13407;BME280;6774;48.208;10.766;2023-04-10T12:39:36;95840.06;;;20.26;35.88
13407;BME280;6774;48.208;10.766;2023-04-10T12:42:12;95842.03;;;20.76;35.63
13407;BME280;6774;48.208;10.766;2023-04-10T12:44:50;95831.41;;;20.35;34.83
13407;BME280;6774;48.208;10.766;2023-04-10T12:47:18;95826.78;;;20.31;35.18
13407;BME280;6774;48.208;10.766;2023-04-10T12:50:06;95826.13;;;20.86;35.78
13407;BME280;6774;48.208;10.766;2023-04-10T12:52:35;95828.22;;;21.00;36.04
13407;BME280;6774;48.208;10.766;2023-04-10T12:55:08;95829.34;;;21.38;33.65
13407;BME280;6774;48.208;10.766;2023-04-10T12:57:38;95813.63;;;21.47;34.77
13407;BME280;6774;48.208;10.766;2023-04-10T13:00:07;95813.81;;;21.62;34.17
13407;BME280;6774;48.208;10.766;2023-04-10T13:02:36;95811.56;;;21.54;32.57
13407;BME280;6774;48.208;10.766;2023-04-10T13:05:06;95808.56;;;21.72;32.51
13407;BME280;6774;48.208;10.766;2023-04-10T13:07:34;95816.59;;;21.67;33.55
13407;BME280;6774;48.208;10.766;2023-04-10T13:10:03;95814.75;;;21.12;32.58
13407;BME280;6774;48.208;10.766;2023-04-10T13:12:31;95817.47;;;21.17;33.77
13407;BME280;6774;48.208;10.766;2023-04-10T13:15:01;95816.84;;;21.10;34.15
13407;BME280;6774;48.208;10.766;2023-04-10T13:17:29;95815.22;;;21.09;34.93
13407;BME280;6774;48.208;10.766;2023-04-10T13:19:57;95814.50;;;20.97;34.04
13407;BME280;6774;48.208;10.766;2023-04-10T13:22:25;95813.09;;;21.11;33.93
13407;BME280;6774;48.208;10.766;2023-04-10T13:24:52;95806.75;;;21.34;33.74
13407;BME280;6774;48.208;10.766;2023-04-10T13:27:20;95804.31;;;20.99;33.69
13407;BME280;6774;48.208;10.766;2023-04-10T13:29:48;95797.19;;;20.88;34.92
13407;BME280;6774;48.208;10.766;2023-04-10T13:32:17;95792.13;;;20.74;36.43
13407;BME280;6774;48.208;10.766;2023-04-10T13:34:44;95783.88;;;20.76;34.90
13407;BME280;6774;48.208;10.766;2023-04-10T13:37:12;95785.81;;;20.97;34.83